Time;durP1;ratioP1;P1;durP2;ratioP2;P2;SDS_P1;SDS_P2;PMS_P1;PMS_P2;Temp;Humidity;BMP_temperature;BMP_pressure;BME280_temperature;BME280_humidity;BME280_pressure;Samples;Min_cycle;Max_cycle;Signal;HPM_P1;HPM_P2
2022/11/21 00:01:01;;;;;;;25.38;16.00;;;;;;;;;;4981528;28;20185;-78
2022/11/21 00:03:27;;;;;;;27.83;16.00;;;;;;;;;;4981682;28;20217;-77
2022/11/21 00:05:53;;;;;;;24.48;16.15;;;;;;;;;;4990716;28;20200;-79
2022/11/21 00:08:20;;;;;;;24.63;17.35;;;;;;;;;;4982435;28;20201;-79
2022/11/21 00:10:47;;;;;;;20.80;14.85;;;;;;;;;;4983607;28;20212;-79
2022/11/21 00:13:14;;;;;;;20.80;15.77;;;;;;;;;;4977406;28;20458;-78
2022/11/21 00:15:40;;;;;;;27.13;16.73;;;;;;;;;;4968508;28;20776;-83
2022/11/21 00:18:08;;;;;;;27.38;16.45;;;;;;;;;;4987912;28;20489;-87
2022/11/21 00:20:35;;;;;;;24.50;16.88;;;;;;;;;;4947941;28;20260;-80
2022/11/21 00:23:02;;;;;;;27.38;17.27;;;;;;;;;;4961886;28;20217;-80
2022/11/21 00:25:28;;;;;;;23.92;14.80;;;;;;;;;;4952610;28;20256;-80
2022/11/21 00:27:54;;;;;;;25.50;15.73;;;;;;;;;;4960871;28;20640;-79
2022/11/21 00:30:20;;;;;;;22.05;15.40;;;;;;;;;;4950949;28;20190;-79
2022/11/21 00:32:50;;;;;;;29.00;17.25;;;;;;;;;;4952949;28;20207;-79
2022/11/21 00:35:16;;;;;;;23.40;16.77;;;;;;;;;;4954809;28;20193;-79
2022/11/21 00:37:42;;;;;;;26.40;18.70;;;;;;;;;;4949864;28;20206;-79
2022/11/21 00:40:09;;;;;;;26.40;17.57;;;;;;;;;;4958799;28;20200;-80
2022/11/21 00:42:35;;;;;;;25.23;18.33;;;;;;;;;;4964409;28;20469;-79
2022/11/21 00:45:01;;;;;;;23.15;15.55;;;;;;;;;;4959290;28;20228;-80
2022/11/21 00:47:27;;;;;;;24.95;16.92;;;;;;;;;;4955810;28;20242;-80
2022/11/21 00:49:53;;;;;;;31.08;18.85;;;;;;;;;;4954204;28;20209;-80
2022/11/21 00:52:19;;;;;;;28.33;18.95;;;;;;;;;;4961540;28;20226;-81
2022/11/21 00:54:45;;;;;;;29.35;17.35;;;;;;;;;;4956661;28;20284;-81
2022/11/21 00:57:11;;;;;;;30.25;18.77;;;;;;;;;;4955677;28;20222;-80
2022/11/21 00:59:37;;;;;;;25.60;17.70;;;;;;;;;;4955211;28;20194;-80
2022/11/21 01:02:04;;;;;;;30.45;18.58;;;;;;;;;;4961907;28;20508;-79
2022/11/21 01:04:31;;;;;;;32.13;19.42;;;;;;;;;;4964759;28;20644;-79
2022/11/21 01:06:57;;;;;;;26.23;17.95;;;;;;;;;;4961430;28;20477;-79
2022/11/21 01:09:23;;;;;;;25.17;15.93;;;;;;;;;;4953786;28;20230;-80
2022/11/21 01:11:49;;;;;;;27.23;18.27;;;;;;;;;;4953684;28;20504;-79
2022/11/21 01:14:15;;;;;;;29.23;19.42;;;;;;;;;;4955212;28;20193;-80
2022/11/21 01:16:41;;;;;;;29.73;20.20;;;;;;;;;;4964465;28;20554;-79
2022/11/21 01:19:07;;;;;;;30.38;17.45;;;;;;;;;;4958519;28;20194;-79
2022/11/21 01:21:33;;;;;;;29.42;17.50;;;;;;;;;;4958074;28;20202;-79
2022/11/21 01:24:00;;;;;;;27.60;17.53;;;;;;;;;;4952577;28;20818;-79
2022/11/21 01:26:27;;;;;;;26.75;15.75;;;;;;;;;;4954921;28;20945;-80
2022/11/21 01:28:53;;;;;;;25.45;16.33;;;;;;;;;;4968540;28;20285;-79
2022/11/21 01:31:23;;;;;;;31.42;18.10;;;;;;;;;;4960954;28;20201;-79
2022/11/21 01:33:50;;;;;;;31.88;17.63;;;;;;;;;;4961174;28;20191;-79
2022/11/21 01:36:20;;;;;;;31.02;18.25;;;;;;;;;;4952470;28;20257;-80
2022/11/21 01:38:48;;;;;;;32.33;18.77;;;;;;;;;;4970000;28;20178;-80
2022/11/21 01:41:15;;;;;;;29.98;19.73;;;;;;;;;;4957798;28;20300;-79
2022/11/21 01:43:42;;;;;;;30.45;19.90;;;;;;;;;;4968716;28;20236;-79
2022/11/21 01:46:07;;;;;;;27.45;17.15;;;;;;;;;;4964886;28;20204;-79
2022/11/21 01:48:43;;;;;;;37.70;19.77;;;;;;;;;;4952662;28;20202;-79
2022/11/21 01:51:16;;;;;;;37.85;19.90;;;;;;;;;;4967582;28;20820;-79
2022/11/21 01:53:44;;;;;;;34.15;19.23;;;;;;;;;;4955507;28;20199;-79
2022/11/21 01:56:11;;;;;;;33.17;18.75;;;;;;;;;;4967550;28;20225;-79
2022/11/21 01:58:38;;;;;;;31.70;19.88;;;;;;;;;;4956459;28;20190;-79
2022/11/21 02:01:05;;;;;;;32.95;19.05;;;;;;;;;;4965133;28;20541;-79
2022/11/21 02:03:37;;;;;;;37.13;21.50;;;;;;;;;;4947267;28;20217;-79
2022/11/21 02:06:03;;;;;;;37.33;22.73;;;;;;;;;;4957255;28;20542;-79
2022/11/21 02:08:29;;;;;;;39.25;21.08;;;;;;;;;;4965979;28;20189;-79
2022/11/21 02:11:06;;;;;;;40.35;22.08;;;;;;;;;;4965227;28;20192;-79
2022/11/21 02:13:32;;;;;;;37.60;19.10;;;;;;;;;;4965879;28;20747;-80
2022/11/21 02:15:58;;;;;;;32.38;19.85;;;;;;;;;;4967215;28;20886;-80
2022/11/21 02:18:24;;;;;;;38.75;20.25;;;;;;;;;;4964748;28;20201;-80
2022/11/21 02:20:53;;;;;;;37.27;22.23;;;;;;;;;;4967570;28;20232;-80
2022/11/21 02:23:42;;;;;;;37.35;21.23;;;;;;;;;;4952953;28;20480;-80
2022/11/21 02:26:08;;;;;;;40.58;21.45;;;;;;;;;;4957788;28;20293;-79
2022/11/21 02:28:34;;;;;;;35.60;20.80;;;;;;;;;;4957012;28;20202;-79
2022/11/21 02:31:00;;;;;;;36.78;22.38;;;;;;;;;;4955807;28;20672;-79
2022/11/21 02:33:26;;;;;;;38.80;22.13;;;;;;;;;;4953494;28;20222;-79
2022/11/21 02:35:56;;;;;;;36.63;21.33;;;;;;;;;;4963364;28;20743;-79
2022/11/21 02:38:24;;;;;;;34.88;20.80;;;;;;;;;;4951520;28;20237;-79
2022/11/21 02:41:09;;;;;;;38.80;19.60;;;;;;;;;;4958728;28;20569;-82
2022/11/21 02:43:47;;;;;;;38.25;21.30;;;;;;;;;;4957164;28;20712;-79
2022/11/21 02:46:13;;;;;;;38.90;21.65;;;;;;;;;;4955066;28;20194;-80
2022/11/21 02:48:39;;;;;;;37.67;21.67;;;;;;;;;;4959847;28;20284;-80
2022/11/21 02:51:05;;;;;;;30.65;20.00;;;;;;;;;;4957779;28;20497;-80
2022/11/21 02:53:31;;;;;;;38.23;20.70;;;;;;;;;;4951138;28;20253;-79
2022/11/21 02:55:57;;;;;;;42.92;24.70;;;;;;;;;;4958090;28;20430;-79
2022/11/21 02:58:23;;;;;;;39.10;20.83;;;;;;;;;;4960181;28;20568;-80
2022/11/21 03:00:49;;;;;;;39.58;21.90;;;;;;;;;;4956427;28;20935;-80
2022/11/21 03:03:15;;;;;;;38.92;22.10;;;;;;;;;;4954609;28;20692;-81
2022/11/21 03:05:42;;;;;;;36.88;22.00;;;;;;;;;;4955898;28;20254;-79
2022/11/21 03:08:09;;;;;;;38.10;22.40;;;;;;;;;;4964432;28;20200;-79
2022/11/21 03:10:35;;;;;;;41.33;21.70;;;;;;;;;;4961434;28;20190;-81
2022/11/21 03:13:01;;;;;;;33.45;17.52;;;;;;;;;;4950248;28;20707;-79
2022/11/21 03:15:28;;;;;;;35.42;19.70;;;;;;;;;;4956095;28;20241;-79
2022/11/21 03:17:55;;;;;;;39.97;20.33;;;;;;;;;;4951471;28;20195;-80
2022/11/21 03:20:21;;;;;;;39.20;20.80;;;;;;;;;;4956131;28;20241;-79
2022/11/21 03:22:47;;;;;;;31.52;18.58;;;;;;;;;;4960974;28;20189;-80
2022/11/21 03:25:13;;;;;;;33.80;19.73;;;;;;;;;;4965150;28;20213;-80
2022/11/21 03:27:39;;;;;;;34.13;20.03;;;;;;;;;;4963029;28;20964;-80
2022/11/21 03:30:05;;;;;;;27.80;16.90;;;;;;;;;;4956685;28;20441;-80
2022/11/21 03:32:31;;;;;;;30.67;17.75;;;;;;;;;;4957470;28;20209;-79
2022/11/21 03:34:57;;;;;;;29.35;17.08;;;;;;;;;;4959598;28;20238;-80
2022/11/21 03:37:23;;;;;;;32.97;18.27;;;;;;;;;;4963652;28;20277;-80
2022/11/21 03:39:49;;;;;;;36.37;18.87;;;;;;;;;;4972171;28;21163;-79
2022/11/21 03:42:15;;;;;;;35.87;18.60;;;;;;;;;;4947226;28;20445;-79
2022/11/21 03:44:41;;;;;;;31.30;19.10;;;;;;;;;;4962860;28;20829;-80
2022/11/21 03:47:07;;;;;;;33.20;19.27;;;;;;;;;;4956364;28;20445;-80
2022/11/21 03:49:33;;;;;;;23.15;14.20;;;;;;;;;;4952957;28;20252;-79
2022/11/21 03:51:59;;;;;;;25.52;14.40;;;;;;;;;;4952439;28;20203;-79
2022/11/21 03:54:25;;;;;;;24.90;14.38;;;;;;;;;;4967870;28;20189;-80
2022/11/21 03:56:52;;;;;;;28.08;14.88;;;;;;;;;;4957771;28;20198;-80
2022/11/21 03:59:18;;;;;;;27.70;14.70;;;;;;;;;;4958167;28;20684;-79
2022/11/21 04:01:44;;;;;;;23.67;13.15;;;;;;;;;;4959394;28;20212;-80
2022/11/21 04:04:16;;;;;;;23.88;14.13;;;;;;;;;;4966841;28;20508;-80
2022/11/21 04:06:44;;;;;;;20.25;14.27;;;;;;;;;;4962662;28;20186;-80
2022/11/21 04:09:10;;;;;;;23.27;14.10;;;;;;;;;;4961214;28;20206;-80
2022/11/21 04:11:37;;;;;;;27.35;14.20;;;;;;;;;;4960668;28;20232;-80
2022/11/21 04:14:03;;;;;;;33.70;17.63;;;;;;;;;;4966472;28;20261;-79
2022/11/21 04:16:30;;;;;;;30.17;16.33;;;;;;;;;;4955341;28;20907;-79
2022/11/21 04:18:56;;;;;;;32.05;16.45;;;;;;;;;;4959958;28;20453;-80
2022/11/21 06:51:35;;;;;;;53.63;23.90;;;;;;;;;;4905099;23;10001833;-92
2022/11/21 06:54:17;;;;;;;49.13;22.92;;;;;;;;;;5009247;28;20192;-90
2022/11/21 06:57:03;;;;;;;49.05;21.63;;;;;;;;;;5008105;28;20205;-86
2022/11/21 06:59:29;;;;;;;49.55;22.80;;;;;;;;;;5011924;28;20212;-88
2022/11/21 07:01:57;;;;;;;60.40;24.05;;;;;;;;;;5009681;28;20270;-92
2022/11/21 07:04:37;;;;;;;46.28;23.10;;;;;;;;;;5006722;28;20208;-91
2022/11/21 07:07:03;;;;;;;48.53;22.23;;;;;;;;;;4996185;28;20208;-89
2022/11/21 07:09:35;;;;;;;53.90;24.85;;;;;;;;;;4995599;28;20196;-91
2022/11/21 08:05:40;;;;;;;63.08;22.58;;;;;;;;;;5176604;23;20504;-90
2022/11/21 08:08:09;;;;;;;51.50;24.77;;;;;;;;;;5011047;28;20177;-91
2022/11/21 08:37:09;;;;;;;50.43;22.17;;;;;;;;;;5254164;23;20213;-90
2022/11/21 09:28:16;;;;;;;44.57;23.07;;;;;;;;;;5205299;23;20239;-91
2022/11/21 09:59:18;;;;;;;38.83;21.33;;;;;;;;;;5061936;23;20223;-89
2022/11/21 10:01:48;;;;;;;36.40;20.73;;;;;;;;;;5029248;28;20505;-88
2022/11/21 10:04:14;;;;;;;35.10;20.30;;;;;;;;;;5049437;28;20505;-88
2022/11/21 10:06:45;;;;;;;41.63;19.63;;;;;;;;;;5026445;28;20426;-90
2022/11/21 10:09:35;;;;;;;37.93;19.83;;;;;;;;;;5028939;28;20784;-90
2022/11/21 10:15:20;;;;;;;28.97;18.10;;;;;;;;;;5041794;28;20410;-89
2022/11/21 10:18:05;;;;;;;21.77;12.67;;;;;;;;;;5028163;28;20427;-89
2022/11/21 10:20:50;;;;;;;30.60;18.23;;;;;;;;;;5027288;28;20434;-90
2022/11/21 10:23:26;;;;;;;31.70;17.70;;;;;;;;;;5041846;28;20470;-88
2022/11/21 10:25:56;;;;;;;23.87;14.70;;;;;;;;;;5035392;28;20438;-90
2022/11/21 10:28:28;;;;;;;24.03;13.90;;;;;;;;;;5022420;28;20780;-89
2022/11/21 10:30:58;;;;;;;20.77;14.50;;;;;;;;;;5011243;28;20444;-89
2022/11/21 14:19:19;;;;;;;5.20;4.70;;;;;;;;;;6146975;23;20407;-88
2022/11/21 14:41:31;;;;;;;4.27;3.97;;;;;;;;;;5674934;23;20478;-90
2022/11/21 14:44:07;;;;;;;6.90;3.70;;;;;;;;;;5016507;28;20548;-92
2022/11/21 14:46:59;;;;;;;3.80;3.70;;;;;;;;;;5009647;28;20541;-95
2022/11/21 14:49:28;;;;;;;3.83;3.20;;;;;;;;;;5017635;28;20877;-95
2022/11/21 14:52:08;;;;;;;3.30;3.20;;;;;;;;;;5031245;28;20451;-91
2022/11/21 18:41:42;;;;;;;2.88;2.78;;;;;;;;;;5472986;23;10001562;-91
2022/11/21 18:44:13;;;;;;;2.90;2.20;;;;;;;;;;4970203;28;20206;-91
2022/11/21 18:46:39;;;;;;;3.87;1.83;;;;;;;;;;4974686;28;20458;-91
2022/11/21 18:49:06;;;;;;;2.97;2.53;;;;;;;;;;4979554;28;20444;-92
2022/11/21 18:51:38;;;;;;;3.90;2.20;;;;;;;;;;4973093;28;20197;-90
2022/11/21 18:54:06;;;;;;;2.67;2.57;;;;;;;;;;4966371;28;20426;-92
2022/11/21 18:56:33;;;;;;;2.47;2.33;;;;;;;;;;4959567;28;20450;-91
2022/11/21 18:58:59;;;;;;;2.47;1.90;;;;;;;;;;4980404;28;20451;-88
2022/11/21 19:01:38;;;;;;;5.13;2.70;;;;;;;;;;4977764;28;20436;-92
2022/11/21 19:04:08;;;;;;;1.93;1.83;;;;;;;;;;4970099;28;21029;-91
2022/11/21 19:06:34;;;;;;;5.30;3.47;;;;;;;;;;4973814;28;20893;-92
2022/11/21 19:09:35;;;;;;;2.13;2.00;;;;;;;;;;4970787;28;20422;-90
2022/11/21 19:12:08;;;;;;;1.57;1.57;;;;;;;;;;4962124;28;20726;-89
2022/11/21 19:14:41;;;;;;;5.83;2.50;;;;;;;;;;4956912;28;20433;-91
2022/11/21 19:17:08;;;;;;;4.03;2.30;;;;;;;;;;4985550;28;20461;-90
2022/11/21 19:19:34;;;;;;;2.20;2.10;;;;;;;;;;4989545;28;20461;-91
2022/11/21 19:22:00;;;;;;;4.00;2.30;;;;;;;;;;4953884;28;20457;-92
2022/11/21 19:24:26;;;;;;;5.37;2.10;;;;;;;;;;4963592;28;20483;-92
2022/11/21 19:26:52;;;;;;;2.70;2.50;;;;;;;;;;4960813;28;20467;-90
2022/11/21 19:29:19;;;;;;;2.00;1.67;;;;;;;;;;4974303;28;20455;-91
2022/11/21 19:31:45;;;;;;;8.47;3.20;;;;;;;;;;4974031;28;20463;-90
2022/11/21 19:34:11;;;;;;;3.83;2.47;;;;;;;;;;4978630;28;20441;-89
2022/11/21 19:36:48;;;;;;;2.37;2.20;;;;;;;;;;4975174;28;20761;-90
2022/11/21 19:39:40;;;;;;;1.97;1.87;;;;;;;;;;4991674;28;20499;-91
2022/11/21 19:42:06;;;;;;;2.80;2.17;;;;;;;;;;4974059;28;20481;-91
2022/11/21 19:44:32;;;;;;;2.40;2.23;;;;;;;;;;4993936;28;20471;-91
2022/11/21 19:47:07;;;;;;;4.57;2.50;;;;;;;;;;4990321;28;20454;-92
2022/11/21 19:49:33;;;;;;;1.90;1.90;;;;;;;;;;4984367;28;20457;-91
2022/11/21 19:52:04;;;;;;;2.60;2.40;;;;;;;;;;4988695;28;20964;-92
2022/11/21 19:54:30;;;;;;;5.63;1.77;;;;;;;;;;5008402;28;20423;-91
2022/11/21 19:56:56;;;;;;;2.00;2.00;;;;;;;;;;4987595;28;20231;-91
2022/11/21 19:59:26;;;;;;;2.72;2.63;;;;;;;;;;4990504;28;20482;-91
2022/11/21 20:02:00;;;;;;;3.33;2.20;;;;;;;;;;4992333;28;20211;-87
2022/11/21 20:04:26;;;;;;;3.43;2.67;;;;;;;;;;4989767;28;20458;-91
2022/11/21 20:06:56;;;;;;;2.67;1.80;;;;;;;;;;5003909;28;20448;-90
2022/11/21 20:09:22;;;;;;;3.43;2.17;;;;;;;;;;4992539;28;20451;-90
2022/11/21 20:11:52;;;;;;;4.47;2.30;;;;;;;;;;5007127;28;20442;-89
2022/11/21 20:14:21;;;;;;;1.67;1.57;;;;;;;;;;5008497;28;20431;-92
2022/11/21 20:17:00;;;;;;;4.13;2.03;;;;;;;;;;5008127;28;20518;-91
2022/11/21 20:19:26;;;;;;;2.27;2.07;;;;;;;;;;5010246;28;20489;-92
2022/11/21 20:21:52;;;;;;;3.20;1.60;;;;;;;;;;4991818;28;20479;-90
2022/11/21 20:24:21;;;;;;;5.27;1.83;;;;;;;;;;4998285;28;20478;-92
2022/11/21 20:26:48;;;;;;;3.67;2.43;;;;;;;;;;4994678;28;20439;-92
2022/11/21 20:29:14;;;;;;;4.17;2.30;;;;;;;;;;4995344;28;20474;-90
2022/11/21 20:31:49;;;;;;;3.45;2.60;;;;;;;;;;5009696;28;20731;-92
2022/11/21 20:34:15;;;;;;;3.70;2.43;;;;;;;;;;5000528;28;20209;-92
2022/11/21 20:36:45;;;;;;;4.20;2.63;;;;;;;;;;4997754;28;20860;-92
2022/11/21 20:39:13;;;;;;;8.03;2.73;;;;;;;;;;4997446;28;20443;-89
2022/11/21 20:41:42;;;;;;;5.20;2.73;;;;;;;;;;4985467;28;20467;-91
2022/11/21 20:44:19;;;;;;;7.30;2.10;;;;;;;;;;5012675;28;20820;-89
2022/11/21 20:46:45;;;;;;;8.90;3.50;;;;;;;;;;4993839;28;20447;-90
2022/11/21 20:49:11;;;;;;;2.70;2.57;;;;;;;;;;5004089;28;20449;-89
2022/11/21 20:51:38;;;;;;;2.78;2.40;;;;;;;;;;4990000;28;20436;-90
2022/11/21 20:54:04;;;;;;;3.13;2.20;;;;;;;;;;5011844;28;20177;-89
2022/11/21 20:56:34;;;;;;;3.10;1.97;;;;;;;;;;4995363;28;20232;-90
2022/11/21 20:59:04;;;;;;;2.00;1.90;;;;;;;;;;5000312;28;20463;-90
2022/11/21 21:01:32;;;;;;;6.00;3.03;;;;;;;;;;4998525;28;20439;-91
2022/11/21 21:03:59;;;;;;;2.00;1.90;;;;;;;;;;5003321;28;20326;-91
2022/11/21 21:06:25;;;;;;;2.53;2.23;;;;;;;;;;4998211;28;20463;-92
2022/11/21 21:08:55;;;;;;;3.40;3.13;;;;;;;;;;5002953;28;20439;-91
2022/11/21 21:11:22;;;;;;;2.93;2.83;;;;;;;;;;4995673;28;20968;-91
2022/11/21 21:13:49;;;;;;;4.07;2.63;;;;;;;;;;4993723;28;20432;-90
2022/11/21 21:16:20;;;;;;;2.57;2.47;;;;;;;;;;4990451;28;20960;-89
2022/11/21 21:18:53;;;;;;;3.10;1.87;;;;;;;;;;4995467;28;21252;-91
2022/11/21 21:21:23;;;;;;;3.10;2.53;;;;;;;;;;5000137;28;20498;-89
2022/11/21 21:23:59;;;;;;;2.73;2.47;;;;;;;;;;5000750;28;20525;-91
2022/11/21 21:26:26;;;;;;;4.93;2.83;;;;;;;;;;4982878;28;20464;-91
2022/11/21 21:28:53;;;;;;;5.18;2.95;;;;;;;;;;4992491;28;20188;-91
2022/11/21 21:31:22;;;;;;;7.40;3.08;;;;;;;;;;5010002;28;20204;-91
2022/11/21 21:33:49;;;;;;;2.55;2.45;;;;;;;;;;4993202;28;20278;-89
2022/11/21 21:36:19;;;;;;;2.43;2.20;;;;;;;;;;4992577;28;20220;-90
2022/11/21 21:38:52;;;;;;;4.00;2.83;;;;;;;;;;4991508;28;20531;-91
2022/11/21 21:41:21;;;;;;;2.33;2.15;;;;;;;;;;4979963;28;20431;-91
2022/11/21 21:43:54;;;;;;;5.83;2.33;;;;;;;;;;4992241;28;20221;-89
2022/11/21 21:46:21;;;;;;;4.45;2.50;;;;;;;;;;4986925;28;20887;-91
2022/11/21 21:48:47;;;;;;;4.73;2.77;;;;;;;;;;4993452;28;20243;-90
2022/11/21 21:51:17;;;;;;;2.60;2.50;;;;;;;;;;5008007;28;20435;-91
2022/11/21 21:53:44;;;;;;;6.57;2.50;;;;;;;;;;5009386;28;20196;-88
2022/11/21 21:56:10;;;;;;;5.00;2.30;;;;;;;;;;4999054;28;20802;-88
2022/11/21 21:58:40;;;;;;;2.05;1.80;;;;;;;;;;4988637;28;20803;-89
2022/11/21 22:01:07;;;;;;;3.50;2.30;;;;;;;;;;4990918;28;20225;-89
2022/11/21 22:03:36;;;;;;;2.57;2.03;;;;;;;;;;4991940;28;20440;-90
2022/11/21 22:06:06;;;;;;;4.70;2.60;;;;;;;;;;5003847;28;20502;-90
2022/11/21 22:08:33;;;;;;;3.00;1.90;;;;;;;;;;4990731;28;20181;-88
2022/11/21 22:11:09;;;;;;;1.97;1.77;;;;;;;;;;4990803;28;20447;-90
2022/11/21 22:13:39;;;;;;;9.90;2.43;;;;;;;;;;4996098;28;20439;-91
2022/11/21 22:16:06;;;;;;;2.97;1.97;;;;;;;;;;5002431;28;20576;-88
2022/11/21 22:18:32;;;;;;;4.63;1.60;;;;;;;;;;5005099;28;20454;-89
2022/11/21 22:21:11;;;;;;;3.60;2.00;;;;;;;;;;5015063;28;20419;-90
2022/11/21 22:23:37;;;;;;;3.83;2.03;;;;;;;;;;5010809;28;20446;-89
2022/11/21 22:26:03;;;;;;;5.40;2.20;;;;;;;;;;5009829;28;20560;-88
2022/11/21 22:28:30;;;;;;;1.45;1.35;;;;;;;;;;5007768;28;20414;-89
2022/11/21 22:30:59;;;;;;;2.50;1.93;;;;;;;;;;4984148;28;20212;-89
2022/11/21 22:33:26;;;;;;;1.80;1.80;;;;;;;;;;5008833;28;20411;-88
2022/11/21 22:35:52;;;;;;;1.75;1.48;;;;;;;;;;5006101;28;20184;-90
2022/11/21 22:38:18;;;;;;;2.47;1.70;;;;;;;;;;5004681;28;20745;-88
2022/11/21 22:40:50;;;;;;;1.40;1.40;;;;;;;;;;4986916;28;20436;-90
2022/11/21 22:43:17;;;;;;;3.80;2.10;;;;;;;;;;4993793;28;20466;-89
2022/11/21 22:45:44;;;;;;;2.40;2.20;;;;;;;;;;4970426;28;20470;-89
2022/11/21 22:48:11;;;;;;;6.37;2.23;;;;;;;;;;4961422;28;20462;-89
2022/11/21 22:50:37;;;;;;;1.63;1.53;;;;;;;;;;4975926;28;20906;-88
2022/11/21 22:53:04;;;;;;;3.93;2.10;;;;;;;;;;4966983;28;20464;-89
2022/11/21 22:55:30;;;;;;;1.35;1.35;;;;;;;;;;5006291;28;20456;-88
2022/11/21 22:57:57;;;;;;;2.27;1.80;;;;;;;;;;4992636;28;20197;-88
2022/11/21 23:00:23;;;;;;;2.50;1.70;;;;;;;;;;4986704;28;20844;-88
2022/11/21 23:02:49;;;;;;;3.00;2.00;;;;;;;;;;4642052;28;10000296;-89
2022/11/21 23:05:15;;;;;;;2.43;2.17;;;;;;;;;;4973502;28;20503;-89
2022/11/21 23:07:42;;;;;;;1.63;1.63;;;;;;;;;;4970187;28;20472;-89
2022/11/21 23:10:11;;;;;;;2.42;1.60;;;;;;;;;;4984789;28;20507;-88
2022/11/21 23:12:37;;;;;;;2.83;2.30;;;;;;;;;;4963347;28;20217;-89
2022/11/21 23:15:03;;;;;;;3.90;1.97;;;;;;;;;;4990983;28;20433;-89
2022/11/21 23:17:29;;;;;;;4.47;1.85;;;;;;;;;;4969800;28;20441;-87
2022/11/21 23:19:55;;;;;;;2.20;1.80;;;;;;;;;;4972595;28;20280;-89
2022/11/21 23:22:21;;;;;;;2.03;1.50;;;;;;;;;;4983302;28;20506;-90
2022/11/21 23:24:47;;;;;;;1.80;1.80;;;;;;;;;;4976479;28;20491;-89
2022/11/21 23:27:13;;;;;;;2.23;1.63;;;;;;;;;;4971551;28;21174;-89
2022/11/21 23:29:39;;;;;;;2.70;1.27;;;;;;;;;;4973672;28;20432;-89
2022/11/21 23:32:05;;;;;;;3.27;1.80;;;;;;;;;;4968246;28;20463;-88
2022/11/21 23:34:31;;;;;;;1.33;1.33;;;;;;;;;;4974527;28;20411;-88
2022/11/21 23:36:59;;;;;;;1.92;1.83;;;;;;;;;;4991509;28;20419;-88
2022/11/21 23:39:28;;;;;;;3.90;1.53;;;;;;;;;;4981187;28;20189;-88
2022/11/21 23:42:00;;;;;;;3.10;2.35;;;;;;;;;;4988793;28;20458;-87
2022/11/21 23:44:26;;;;;;;2.30;1.80;;;;;;;;;;4991233;28;20196;-88
2022/11/21 23:46:52;;;;;;;2.10;2.00;;;;;;;;;;4988123;28;21597;-87
2022/11/21 23:49:18;;;;;;;1.38;1.27;;;;;;;;;;4989663;28;20419;-89
2022/11/21 23:51:44;;;;;;;1.57;1.47;;;;;;;;;;5005875;28;20189;-88
2022/11/21 23:54:11;;;;;;;2.67;1.27;;;;;;;;;;4990817;28;20437;-88
2022/11/21 23:56:37;;;;;;;7.32;1.65;;;;;;;;;;5005743;28;20435;-89
2022/11/21 23:59:03;;;;;;;2.45;1.90;;;;;;;;;;5008125;28;20189;-88
